Ne plus se rappeler de moi
Bonjour et Bienvenue
Pas de session ouverte
Mercredi 30/07/2014
d:\inetpub\wwwroot\acrroussillon\reservation\ACR\IMAGES\IMG1.JPGd:\inetpub\wwwroot\acrroussillon\reservation\ACR\IMAGES\IMG2.JPGd:\inetpub\wwwroot\acrroussillon\reservation\ACR/IMAGES/IMG3.jpg
00:00:00
Horaires du 30/07/2014 (Données à titre indicatif seulement).
Lever du soleil : 06h38 - Coucher du soleil : 21h12 (Heure Locale)
Jour aéronautique : 06h08 - Nuit aéronautique : 21h42 (Heure Locale)
Planning des réservations des aéronefs
Planning des réservations des aéronefs
2014/07/30 02:30
LFMP 300230Z AUTO 28014KT 9999 NSC 21/11 Q1014
Planning des réservations des aéronefs
2014/07/29 18:15
TAF LFMP 291700Z 2918/3018 33020KT 9999 FEW037 BKN100
TEMPO 2918/2923 31025G40KT
TEMPO 2923/3012 30030G50KT
TEMPO 3012/3018 31025G40KT
Informations sur les aéronefs
Informations sur les aéronefs
Modifications des Types de vols
ATTENTION PLUS DE PAIEMENT EN LIGNE DEPUIS LA MAISON
AEROCLUB DU ROUSSILLON. AVENUE MAURICE BELLONTE. 66000 PERPIGNAN. Tel : 04.68.73.48.18 Fax : 09.55.16.18.97 Courriel : aeroclub-roussillon@hotmail.fr
 METAR / TAF
LIENS UTILES
envoyer un e-mail
d:\inetpub\wwwroot\acrroussillon\reservation\ACR/IMAGES/Logo.jpg
Identifiez vous pour interaction
d:\inetpub\wwwroot\acrroussillon\reservation\ACR/IMAGES/Logo.jpg
Aéro-Club du Roussillon